Almaty, Kazakhstan

11:16 AM ALMT on January 29, 2015 (GMT +0600)
Almaty | Change Station
CLOSE
Current Station
Airport
Location: Almaty,
Elevation: 2231 ft
Nearby Weather Stations

Elev 2231 ft 43.35 °N, 77.04 °E | Updated 16 minutes ago

Mostly Cloudy
Mostly Cloudy
5 °F
Feels Like 5 °F
N
2
Wind Variable Wind from Variable

Today
High -- | Low -- °F
--% Chance of Precip.
Yesterday
High -- | Low -- °F
Precip. -- in
8:11 AM 5:59 PM
Waxing Gibbous, 71% visible
Pressure 30.27 in
Visibility 0.7 miles
Clouds Mostly Cloudy 300 ft
Dew Point 1 °F
Humidity 85%
Rainfall 0.00 in
Snow Depth Not available.
UV 1 out of 12
Pollen Not available.
Air Quality Not available.
Flu Activity Not available.
METAR UAAA 290500Z VRB01MPS 1100 R23R/1100N R23L/1400N BR FU BKN003 M15/M17 Q1025 R88/3///50 NOSIG RMK QBB100

More Conditions Fewer Conditions

Pressure 30.27 in
Visibility 0.7 miles
Clouds Mostly Cloudy 300 ft
Dew Point 1 °F
Humidity 85%
Rainfall 0.00 in
Snow Depth Not available.
UV 1 out of 12
Pollen Not available.
Air Quality Not available.
Flu Activity Not available.
METAR UAAA 290500Z VRB01MPS 1100 R23R/1100N R23L/1400N BR FU BKN003 M15/M17 Q1025 R88/3///50 NOSIG RMK QBB100

More Conditions Fewer Conditions

10-Day Weather Forecast

Almanac

Astronomy

Jan. 29, 2015 Rise Set
Actual Time
Civil Twilight
Nautical Twilight
Astronomical Twilight
Moon
Length of Visible Light
Length of Day
Tomorrow will be .
, % of the Moon is Illuminated

Today's Extremes

Country Highs Country Lows

Community

WunderPhotos

Upload Photos

1,791,357 photos uploaded!

WunderBlogs® & News

Nearby

Air Quality

  Air Quality AQ Index Pollutant
Not available.

Snow Depth

Station Depth Elevation

Earthquake Activity

City Distance Mag. Time & Date
Minimum magnitude displayed is 2.5.

Coastal Water Temperatures

Place Temperature

Nearby Weather Stations